createdAt,value
2018-05-24T00:00:47.221Z,87.80
2018-05-24T00:03:14.817Z,87.70
2018-05-24T00:05:42.452Z,88.20
2018-05-24T00:08:10.077Z,88.40
2018-05-24T00:10:38.441Z,88.30
2018-05-24T00:13:06.818Z,88.20
2018-05-24T00:15:35.225Z,88.30
2018-05-24T00:18:02.879Z,88.30
2018-05-24T00:20:30.530Z,87.90
2018-05-24T00:22:58.929Z,87.40
2018-05-24T00:25:26.521Z,87.40
2018-05-24T00:27:54.148Z,87.80
2018-05-24T00:30:21.815Z,87.90
2018-05-24T00:32:49.399Z,88.30
2018-05-24T00:35:17.025Z,88.30
2018-05-24T00:37:44.623Z,87.70
2018-05-24T00:40:12.237Z,87.50
2018-05-24T00:42:39.909Z,87.90
2018-05-24T00:45:07.539Z,88.00
2018-05-24T00:47:35.959Z,89.10
2018-05-24T00:50:03.571Z,88.90
2018-05-24T00:52:31.168Z,89.10
2018-05-24T00:55:10.660Z,89.40
2018-05-24T00:57:38.375Z,89.30
2018-05-24T01:00:06.016Z,89.60
2018-05-24T01:02:34.380Z,89.70
2018-05-24T01:05:02.776Z,89.90
2018-05-24T01:07:30.421Z,89.90
2018-05-24T01:09:58.801Z,90.10
2018-05-24T01:12:27.162Z,89.70
2018-05-24T01:14:54.800Z,89.70
2018-05-24T01:17:22.384Z,90.20
2018-05-24T01:19:50.014Z,90.20
2018-05-24T01:22:17.624Z,90.50
2018-05-24T01:24:46.029Z,90.20
2018-05-24T01:27:13.631Z,90.10
2018-05-24T01:29:42.029Z,90.30
2018-05-24T01:32:10.408Z,90.30
2018-05-24T01:34:38.797Z,90.40
2018-05-24T01:37:19.096Z,90.60
2018-05-24T01:39:46.689Z,90.60
2018-05-24T01:42:14.293Z,90.70
2018-05-24T01:44:41.920Z,90.80
2018-05-24T01:47:10.310Z,90.60
2018-05-24T01:49:38.675Z,90.70
2018-05-24T01:52:07.036Z,90.60
2018-05-24T01:54:34.632Z,90.60
2018-05-24T01:57:02.991Z,90.70
2018-05-24T01:59:31.448Z,90.80
2018-05-24T02:01:59.060Z,90.70
2018-05-24T02:04:26.649Z,90.70
2018-05-24T02:06:54.246Z,90.80
2018-05-24T02:09:21.892Z,90.90
2018-05-24T02:11:49.500Z,91.20
2018-05-24T02:14:17.129Z,91.00
2018-05-24T02:16:45.549Z,90.80
2018-05-24T02:19:13.185Z,90.80
2018-05-24T02:21:41.563Z,91.00
2018-05-24T02:24:09.167Z,91.00
2018-05-24T02:26:36.841Z,91.00
2018-05-24T02:29:04.494Z,90.80
2018-05-24T02:31:32.100Z,90.70
2018-05-24T02:34:00.448Z,90.90
2018-05-24T02:36:28.035Z,90.90
2018-05-24T02:38:56.458Z,91.10
2018-05-24T02:41:24.075Z,91.10
2018-05-24T02:43:52.491Z,91.20
2018-05-24T02:46:20.137Z,91.20
2018-05-24T02:48:47.731Z,91.30
2018-05-24T02:51:15.355Z,91.40
2018-05-24T02:53:42.996Z,91.40
2018-05-24T02:56:11.371Z,91.40
2018-05-24T02:58:39.763Z,91.40
2018-05-24T03:01:07.408Z,91.40
2018-05-24T03:03:35.810Z,91.40
2018-05-24T03:06:03.440Z,91.40
2018-05-24T03:08:32.812Z,91.50
2018-05-24T03:11:00.460Z,91.50
2018-05-24T03:13:28.933Z,91.60
2018-05-24T03:15:56.511Z,91.60
2018-05-24T03:18:24.126Z,92.00
2018-05-24T03:20:51.743Z,91.70
2018-05-24T03:23:19.412Z,91.60
2018-05-24T03:25:47.091Z,91.60
2018-05-24T03:28:15.496Z,91.50
2018-05-24T03:30:43.137Z,91.40
2018-05-24T03:33:11.494Z,91.40
2018-05-24T03:35:39.101Z,91.40
2018-05-24T03:38:06.716Z,91.20
2018-05-24T03:40:34.361Z,91.30
2018-05-24T03:43:01.990Z,91.40
2018-05-24T03:45:29.600Z,91.30
2018-05-24T03:47:58.013Z,91.40
2018-05-24T03:50:25.618Z,91.40
2018-05-24T03:52:53.268Z,91.30
2018-05-24T03:55:20.894Z,91.30
2018-05-24T03:57:48.609Z,91.20
2018-05-24T04:00:28.020Z,90.90
2018-05-24T04:03:07.487Z,90.60
2018-05-24T04:05:35.116Z,90.60
2018-05-24T04:08:02.746Z,90.40
2018-05-24T04:10:30.360Z,90.40
2018-05-24T04:12:57.978Z,90.70
2018-05-24T04:15:25.620Z,91.10
2018-05-24T04:17:53.211Z,91.30
2018-05-24T04:20:20.841Z,91.20
2018-05-24T04:22:48.441Z,91.00
2018-05-24T04:25:16.054Z,91.00
2018-05-24T04:27:43.769Z,91.00
2018-05-24T04:30:11.388Z,91.00
2018-05-24T04:32:38.992Z,91.00
2018-05-24T04:35:06.577Z,91.20
2018-05-24T04:37:34.979Z,91.40
2018-05-24T04:40:02.595Z,91.40
2018-05-24T04:42:30.197Z,91.30
2018-05-24T04:44:57.820Z,91.30
2018-05-24T04:47:25.436Z,91.00
2018-05-24T04:49:53.055Z,91.00
2018-05-24T04:52:20.691Z,91.00
2018-05-24T04:54:48.285Z,91.30
2018-05-24T04:57:16.650Z,91.20
2018-05-24T04:59:44.280Z,91.20
2018-05-24T05:02:11.879Z,91.40
2018-05-24T05:04:40.272Z,91.70
2018-05-24T05:07:07.890Z,91.40
2018-05-24T05:09:35.489Z,91.30
2018-05-24T05:12:03.860Z,91.50
2018-05-24T05:14:32.255Z,91.80
2018-05-24T05:17:00.670Z,91.80
2018-05-24T05:19:28.287Z,91.70
2018-05-24T05:21:55.910Z,91.70
2018-05-24T05:24:23.530Z,91.60
2018-05-24T05:26:51.190Z,91.60
2018-05-24T05:29:18.829Z,91.60
2018-05-24T05:31:46.411Z,91.50
2018-05-24T05:34:13.997Z,91.40
2018-05-24T05:36:41.610Z,91.40
2018-05-24T05:39:09.214Z,91.20
2018-05-24T05:41:36.852Z,91.10
2018-05-24T05:44:04.472Z,90.90
2018-05-24T05:46:32.870Z,91.40
2018-05-24T05:49:00.500Z,91.40
2018-05-24T05:51:28.101Z,91.60
2018-05-24T05:53:55.758Z,91.80
2018-05-24T05:56:23.420Z,91.70
2018-05-24T05:58:51.056Z,91.70
2018-05-24T06:01:19.443Z,91.10
2018-05-24T06:03:47.820Z,90.80
2018-05-24T06:06:16.221Z,90.70
2018-05-24T06:08:43.813Z,90.70
2018-05-24T06:11:11.421Z,90.70
2018-05-24T06:13:39.036Z,90.70
2018-05-24T06:16:06.681Z,90.30
2018-05-24T06:18:34.315Z,90.60
2018-05-24T06:21:01.940Z,90.50
2018-05-24T06:23:30.311Z,90.10
2018-05-24T06:25:57.927Z,90.10
2018-05-24T06:28:25.554Z,90.30
2018-05-24T06:30:53.228Z,90.30
2018-05-24T06:33:20.832Z,90.00
2018-05-24T06:35:48.432Z,89.90
2018-05-24T06:38:16.826Z,90.10
2018-05-24T06:40:44.449Z,90.10
2018-05-24T06:43:12.065Z,89.40
2018-05-24T06:45:39.685Z,89.60
2018-05-24T06:48:08.046Z,89.60
2018-05-24T06:50:35.650Z,89.60
2018-05-24T06:53:03.273Z,89.50
2018-05-24T06:55:31.669Z,89.10
2018-05-24T06:58:00.027Z,87.30
2018-05-24T07:00:27.657Z,87.30
2018-05-24T07:02:55.270Z,87.50
2018-05-24T07:05:23.674Z,85.90
2018-05-24T07:07:51.297Z,85.90
2018-05-24T07:10:19.732Z,87.00
2018-05-24T07:12:47.327Z,87.00
2018-05-24T07:15:14.950Z,86.40
2018-05-24T07:17:42.571Z,86.90
2018-05-24T07:20:10.210Z,86.90
2018-05-24T07:22:37.831Z,86.60
2018-05-24T07:25:05.489Z,86.50
2018-05-24T07:27:33.080Z,86.50
2018-05-24T07:30:00.677Z,86.90
2018-05-24T07:32:28.308Z,86.40
2018-05-24T07:34:55.941Z,86.50
2018-05-24T07:37:23.520Z,85.30
2018-05-24T07:39:51.108Z,86.10
2018-05-24T07:42:19.449Z,85.60
2018-05-24T07:44:47.096Z,85.60
2018-05-24T07:47:14.676Z,86.30
2018-05-24T07:49:42.321Z,85.80
2018-05-24T07:52:09.940Z,85.50
2018-05-24T07:54:37.571Z,85.50
2018-05-24T07:57:06.004Z,85.30
2018-05-24T07:59:33.620Z,85.20
2018-05-24T08:02:01.959Z,83.40
2018-05-24T08:04:29.561Z,83.30
2018-05-24T08:06:57.958Z,83.60
2018-05-24T08:09:25.616Z,83.50
2018-05-24T08:11:53.221Z,82.70
2018-05-24T08:14:20.866Z,82.40
2018-05-24T08:16:48.462Z,83.00
2018-05-24T08:19:16.060Z,81.90
2018-05-24T08:21:43.698Z,83.00
2018-05-24T08:24:12.104Z,84.10
2018-05-24T08:26:39.724Z,83.40
2018-05-24T08:29:08.089Z,81.60
2018-05-24T08:31:35.693Z,81.50
2018-05-24T08:34:03.320Z,81.00
2018-05-24T08:36:31.716Z,80.50
2018-05-24T08:39:00.100Z,80.20
2018-05-24T08:41:27.723Z,80.10
2018-05-24T08:43:55.350Z,80.00
2018-05-24T08:46:23.001Z,79.40
2018-05-24T08:48:50.606Z,79.30
2018-05-24T08:51:18.221Z,78.80
2018-05-24T08:53:45.820Z,79.40
2018-05-24T08:56:13.427Z,80.00
2018-05-24T08:58:41.057Z,80.20
2018-05-24T09:01:09.416Z,79.30
2018-05-24T09:03:37.038Z,79.30
2018-05-24T09:06:04.634Z,78.00
2018-05-24T09:08:32.229Z,78.40
2018-05-24T09:11:00.609Z,75.60
2018-05-24T09:13:28.974Z,76.10
2018-05-24T09:15:57.350Z,76.70
2018-05-24T09:18:25.731Z,75.90
2018-05-24T09:20:54.090Z,76.60
2018-05-24T09:23:22.575Z,75.00
2018-05-24T09:25:50.968Z,74.20
2018-05-24T09:28:19.351Z,75.20
2018-05-24T09:30:47.712Z,74.90
2018-05-24T09:33:15.309Z,74.90
2018-05-24T09:35:42.910Z,75.30
2018-05-24T09:38:10.541Z,75.90
2018-05-24T09:40:38.147Z,74.10
2018-05-24T09:43:05.770Z,72.00
2018-05-24T09:45:33.380Z,71.60
2018-05-24T09:48:01.782Z,71.10
2018-05-24T09:50:29.419Z,71.00
2018-05-24T09:52:57.821Z,70.70
2018-05-24T09:55:25.468Z,70.70
2018-05-24T09:57:53.840Z,69.50
2018-05-24T10:00:22.929Z,71.10
2018-05-24T10:02:51.291Z,72.60
2018-05-24T10:05:18.902Z,71.60
2018-05-24T10:07:46.544Z,72.10
2018-05-24T10:10:14.893Z,71.70
2018-05-24T10:12:42.540Z,71.60
2018-05-24T10:15:10.127Z,71.90
2018-05-24T10:17:38.487Z,70.80
2018-05-24T10:20:07.266Z,68.90
2018-05-24T10:22:34.879Z,69.50
2018-05-24T10:25:02.534Z,69.00
2018-05-24T10:27:30.134Z,70.00
2018-05-24T10:29:57.770Z,68.60
2018-05-24T10:32:25.394Z,68.10
2018-05-24T10:34:53.789Z,69.70
2018-05-24T10:37:21.420Z,69.50
2018-05-24T10:39:49.100Z,69.30
2018-05-24T10:42:17.475Z,68.90
2018-05-24T10:44:45.908Z,70.20
2018-05-24T10:47:13.577Z,70.00
2018-05-24T10:49:41.209Z,69.90
2018-05-24T10:52:08.835Z,70.40
2018-05-24T10:54:37.189Z,71.00
2018-05-24T10:57:04.806Z,70.80
2018-05-24T10:59:32.456Z,71.00
2018-05-24T11:02:00.817Z,72.30
2018-05-24T11:04:28.431Z,71.60
2018-05-24T11:06:56.060Z,72.10
2018-05-24T11:09:23.658Z,71.60
2018-05-24T11:11:51.279Z,71.80
2018-05-24T11:14:18.919Z,72.00
2018-05-24T11:16:47.293Z,70.30
2018-05-24T11:19:15.670Z,70.40
2018-05-24T11:21:44.052Z,70.30
2018-05-24T11:24:12.450Z,71.50
2018-05-24T11:26:40.080Z,70.80
2018-05-24T11:29:08.458Z,72.10
2018-05-24T11:31:36.817Z,72.90
2018-05-24T11:34:04.439Z,72.90
2018-05-24T11:36:32.059Z,73.80
2018-05-24T11:39:00.441Z,73.60
2018-05-24T11:41:28.810Z,73.80
2018-05-24T11:43:57.190Z,73.30
2018-05-24T11:46:25.553Z,74.30
2018-05-24T11:48:53.179Z,74.20
2018-05-24T11:51:20.834Z,75.30
2018-05-24T11:53:48.473Z,75.00
2018-05-24T11:56:16.073Z,75.50
2018-05-24T11:58:43.720Z,73.60
2018-05-24T12:01:11.345Z,73.90
2018-05-24T12:03:38.983Z,73.50
2018-05-24T12:06:06.570Z,70.50
2018-05-24T12:08:34.171Z,71.50
2018-05-24T12:11:01.800Z,72.80
2018-05-24T12:13:29.414Z,69.20
2018-05-24T12:15:57.064Z,68.90
2018-05-24T12:18:24.701Z,68.80
2018-05-24T12:20:52.329Z,70.60
2018-05-24T12:23:19.964Z,69.70
2018-05-24T12:25:47.580Z,69.60
2018-05-24T12:28:15.219Z,70.30
2018-05-24T12:30:42.849Z,70.10
2018-05-24T12:33:11.258Z,70.90
2018-05-24T12:35:38.975Z,70.90
2018-05-24T12:38:06.558Z,70.50
2018-05-24T12:40:34.951Z,69.10
2018-05-24T12:43:02.566Z,69.10
2018-05-24T12:45:30.191Z,69.90
2018-05-24T12:47:57.794Z,69.30
2018-05-24T12:50:25.389Z,68.60
2018-05-24T12:52:53.072Z,69.10
2018-05-24T12:55:20.690Z,68.70
2018-05-24T12:57:49.187Z,70.70
2018-05-24T13:00:16.825Z,70.70
2018-05-24T13:02:44.442Z,71.00
2018-05-24T13:05:12.110Z,72.30
2018-05-24T13:07:39.737Z,72.90
2018-05-24T13:10:07.369Z,74.00
2018-05-24T13:12:35.769Z,74.00
2018-05-24T13:15:03.395Z,73.90
2018-05-24T13:17:31.007Z,74.20
2018-05-24T13:19:58.611Z,74.80
2018-05-24T13:22:26.229Z,74.70
2018-05-24T13:24:53.845Z,75.00
2018-05-24T13:27:21.470Z,75.40
2018-05-24T13:29:49.100Z,77.20
2018-05-24T13:32:16.730Z,77.80
2018-05-24T13:34:45.136Z,77.20
2018-05-24T13:37:12.720Z,77.20
2018-05-24T13:39:40.294Z,76.10
2018-05-24T13:42:07.930Z,75.30
2018-05-24T13:44:35.569Z,74.60
2018-05-24T13:47:03.211Z,73.60
2018-05-24T13:49:31.604Z,73.60
2018-05-24T13:51:59.980Z,74.40
2018-05-24T13:54:28.406Z,71.60
2018-05-24T13:56:56.010Z,71.60
2018-05-24T13:59:24.419Z,73.10
2018-05-24T14:01:52.032Z,73.00
2018-05-24T14:04:20.410Z,71.40
2018-05-24T14:06:48.051Z,71.30
2018-05-24T14:09:15.702Z,71.40
2018-05-24T14:11:43.342Z,72.10
2018-05-24T14:14:10.949Z,72.90
2018-05-24T14:16:38.542Z,73.00
2018-05-24T14:19:06.170Z,70.60
2018-05-24T14:21:33.779Z,70.40
2018-05-24T14:24:01.420Z,67.00
2018-05-24T14:26:29.085Z,68.40
2018-05-24T14:28:56.700Z,67.80
2018-05-24T14:31:24.330Z,68.80
2018-05-24T14:33:51.939Z,69.90
2018-05-24T14:36:19.555Z,70.20
2018-05-24T14:38:47.157Z,70.30
2018-05-24T14:41:14.820Z,70.90
2018-05-24T14:43:42.460Z,71.80
2018-05-24T14:46:10.060Z,71.40
2018-05-24T14:48:38.466Z,71.80
2018-05-24T14:51:06.080Z,71.80
2018-05-24T14:53:34.456Z,72.20
2018-05-24T14:56:02.080Z,72.10
2018-05-24T14:58:29.701Z,70.70
2018-05-24T15:00:57.331Z,71.20
2018-05-24T15:03:24.931Z,71.20
2018-05-24T15:05:52.548Z,71.70
2018-05-24T15:08:20.202Z,71.20
2018-05-24T15:10:47.819Z,72.10
2018-05-24T15:13:27.289Z,71.40
2018-05-24T15:15:54.924Z,72.10
2018-05-24T15:18:22.547Z,71.20
2018-05-24T15:20:50.936Z,67.50
2018-05-24T15:23:19.290Z,66.50
2018-05-24T15:25:46.930Z,66.50
2018-05-24T15:28:14.550Z,66.50
2018-05-24T15:30:42.182Z,64.30
2018-05-24T15:33:10.567Z,65.80
2018-05-24T15:35:38.940Z,65.30
2018-05-24T15:38:07.330Z,64.30
2018-05-24T15:40:35.027Z,64.20
2018-05-24T15:43:02.620Z,66.00
2018-05-24T15:45:30.270Z,66.70
2018-05-24T15:47:57.857Z,67.10
2018-05-24T15:50:26.289Z,68.70
2018-05-24T15:52:53.905Z,68.60
2018-05-24T15:55:22.312Z,68.90
2018-05-24T15:57:49.924Z,68.70
2018-05-24T16:00:18.348Z,69.90
2018-05-24T16:02:46.002Z,69.90
2018-05-24T16:05:13.608Z,69.70
2018-05-24T16:07:41.225Z,69.80
2018-05-24T16:10:08.865Z,69.70
2018-05-24T16:12:37.240Z,69.90
2018-05-24T16:15:05.680Z,70.40
2018-05-24T16:17:34.059Z,69.10
2018-05-24T16:20:01.673Z,69.10
2018-05-24T16:22:29.297Z,69.50
2018-05-24T16:24:57.031Z,71.10
2018-05-24T16:27:24.661Z,72.20
2018-05-24T16:29:52.274Z,71.10
2018-05-24T16:32:19.871Z,70.50
2018-05-24T16:34:47.487Z,69.30
2018-05-24T16:37:15.119Z,69.00
2018-05-24T16:39:42.770Z,70.40
2018-05-24T16:42:10.376Z,68.90
2018-05-24T16:44:38.011Z,69.20
2018-05-24T16:47:05.614Z,70.00
2018-05-24T16:49:33.975Z,71.00
2018-05-24T16:52:01.606Z,71.00
2018-05-24T16:54:29.294Z,72.20
2018-05-24T16:56:56.870Z,72.40
2018-05-24T16:59:25.230Z,72.30
2018-05-24T17:01:52.859Z,72.30
2018-05-24T17:04:20.483Z,72.30
2018-05-24T17:06:48.917Z,71.60
2018-05-24T17:09:16.556Z,71.50
2018-05-24T17:11:44.172Z,71.60
2018-05-24T17:14:12.544Z,71.00
2018-05-24T17:16:40.911Z,71.80
2018-05-24T17:19:08.540Z,71.80
2018-05-24T17:21:36.175Z,72.80
2018-05-24T17:24:03.831Z,72.90
2018-05-24T17:26:31.463Z,72.30
2018-05-24T17:28:59.076Z,73.20
2018-05-24T17:31:26.680Z,72.10
2018-05-24T17:33:54.321Z,71.70
2018-05-24T17:36:21.957Z,71.30
2018-05-24T17:38:49.580Z,71.80
2018-05-24T17:41:17.230Z,74.00
2018-05-24T17:43:45.623Z,75.40
2018-05-24T17:46:13.249Z,75.40
2018-05-24T17:48:41.672Z,74.60
2018-05-24T17:51:09.321Z,74.70
2018-05-24T17:53:36.949Z,76.90
2018-05-24T17:56:04.620Z,76.10
2018-05-24T17:58:34.699Z,75.70
2018-05-24T18:01:02.411Z,75.00
2018-05-24T18:03:30.776Z,74.90
2018-05-24T18:05:59.666Z,74.90
2018-05-24T18:08:27.253Z,74.80
2018-05-24T18:10:54.905Z,75.30
2018-05-24T18:13:23.293Z,74.90
2018-05-24T18:15:50.897Z,74.90
2018-05-24T18:18:18.517Z,74.80
2018-05-24T18:20:46.150Z,74.60
2018-05-24T18:23:14.558Z,74.00
2018-05-24T18:25:42.180Z,73.90
2018-05-24T18:28:10.680Z,75.30
2018-05-24T18:30:39.071Z,77.20
2018-05-24T18:33:06.720Z,77.20
2018-05-24T18:35:34.369Z,77.70
2018-05-24T18:38:02.731Z,78.00
2018-05-24T18:40:30.391Z,78.00
2018-05-24T18:42:58.100Z,77.10
2018-05-24T18:45:25.696Z,75.40
2018-05-24T18:47:53.345Z,74.00
2018-05-24T18:50:20.966Z,73.50
2018-05-24T18:52:49.361Z,73.60
2018-05-24T18:55:17.100Z,73.60
2018-05-24T18:57:45.465Z,76.40
2018-05-24T19:00:13.122Z,76.40
2018-05-24T19:02:40.770Z,78.50
2018-05-24T19:05:08.420Z,78.60
2018-05-24T19:07:36.041Z,77.60
2018-05-24T19:10:03.701Z,78.00
2018-05-24T19:12:31.332Z,78.20
2018-05-24T19:14:59.750Z,77.70
2018-05-24T19:17:27.420Z,77.70
2018-05-24T19:19:55.063Z,79.30
2018-05-24T19:22:22.682Z,79.20
2018-05-24T19:24:50.301Z,78.60
2018-05-24T19:27:17.921Z,77.90
2018-05-24T19:29:46.300Z,78.00
2018-05-24T19:32:14.659Z,78.40
2018-05-24T19:34:42.387Z,78.20
2018-05-24T19:37:10.010Z,78.00
2018-05-24T19:39:37.700Z,78.30
2018-05-24T19:42:05.340Z,78.50
2018-05-24T19:44:32.960Z,78.00
2018-05-24T19:47:00.560Z,77.40
2018-05-24T19:49:28.242Z,77.10
2018-05-24T19:51:56.830Z,77.30
2018-05-24T19:54:24.728Z,77.30
2018-05-24T19:56:52.480Z,77.70
2018-05-24T19:59:21.317Z,78.00
2018-05-24T20:01:48.965Z,77.30
2018-05-24T20:04:16.583Z,77.60
2018-05-24T20:06:44.190Z,79.10
2018-05-24T20:09:12.599Z,78.90
2018-05-24T20:11:40.216Z,78.90
2018-05-24T20:14:08.623Z,78.90
2018-05-24T20:16:36.235Z,78.80
2018-05-24T20:19:03.880Z,79.30
2018-05-24T20:21:31.596Z,79.90
2018-05-24T20:23:59.844Z,80.10
2018-05-24T20:26:28.277Z,80.80
2018-05-24T20:28:56.021Z,81.20
2018-05-24T20:31:23.771Z,81.70
2018-05-24T20:33:52.371Z,81.40
2018-05-24T20:36:20.351Z,81.30
2018-05-24T20:38:48.149Z,81.30
2018-05-24T20:41:15.961Z,81.30
2018-05-24T20:43:43.750Z,81.00
2018-05-24T20:46:11.363Z,80.40
2018-05-24T20:48:39.776Z,80.60
2018-05-24T20:51:07.761Z,80.60
2018-05-24T20:53:35.384Z,80.90
2018-05-24T20:56:02.998Z,81.20
2018-05-24T20:58:30.643Z,81.20
2018-05-24T21:00:58.279Z,81.80
2018-05-24T21:03:25.898Z,81.90
2018-05-24T21:05:53.502Z,82.50
2018-05-24T21:08:21.122Z,82.50
2018-05-24T21:10:48.753Z,82.60
2018-05-24T21:13:16.384Z,83.00
2018-05-24T21:15:44.015Z,83.70
2018-05-24T21:18:12.426Z,84.60
2018-05-24T21:20:40.041Z,84.60
2018-05-24T21:23:07.683Z,85.00
2018-05-24T21:25:39.270Z,85.50
2018-05-24T21:28:08.869Z,86.10
2018-05-24T21:30:36.502Z,86.10
2018-05-24T21:33:04.149Z,86.70
2018-05-24T21:35:31.825Z,88.60
2018-05-24T21:37:59.536Z,88.10
2018-05-24T21:40:27.166Z,86.70
2018-05-24T21:42:54.800Z,86.90
2018-05-24T21:45:22.463Z,86.90
2018-05-24T21:47:50.095Z,86.90
2018-05-24T21:50:17.748Z,91.40
2018-05-24T21:52:45.365Z,91.50
2018-05-24T21:55:12.966Z,91.60
2018-05-24T21:57:40.609Z,91.40
2018-05-24T22:00:09.020Z,91.80
2018-05-24T22:02:36.654Z,91.90
2018-05-24T22:05:05.069Z,92.70
2018-05-24T22:07:32.726Z,92.60
2018-05-24T22:10:00.372Z,92.80
2018-05-24T22:12:27.990Z,93.60
2018-05-24T22:14:55.580Z,93.30
2018-05-24T22:17:23.200Z,92.90
2018-05-24T22:19:50.805Z,93.10
2018-05-24T22:22:18.466Z,92.80
2018-05-24T22:24:46.090Z,92.90
2018-05-24T22:27:13.711Z,92.60
2018-05-24T22:29:41.320Z,92.60
2018-05-24T22:32:09.681Z,93.10
2018-05-24T22:34:37.318Z,92.60
2018-05-24T22:37:04.921Z,92.30
2018-05-24T22:39:33.286Z,92.60
2018-05-24T22:42:00.879Z,91.80
2018-05-24T22:44:28.472Z,92.10
2018-05-24T22:46:56.866Z,93.30
2018-05-24T22:49:24.481Z,92.60
2018-05-24T22:51:52.079Z,92.50
2018-05-24T22:54:19.684Z,92.30
2018-05-24T22:56:48.086Z,92.40
2018-05-24T22:59:15.732Z,92.10
2018-05-24T23:01:43.369Z,92.00
2018-05-24T23:04:10.956Z,92.30
2018-05-24T23:06:38.560Z,92.70
2018-05-24T23:09:06.168Z,92.80
2018-05-24T23:11:33.819Z,92.70
2018-05-24T23:14:02.185Z,87.20
2018-05-24T23:16:29.820Z,87.20
2018-05-24T23:18:57.414Z,87.60
2018-05-24T23:21:25.763Z,87.80
2018-05-24T23:23:53.411Z,87.70
2018-05-24T23:26:21.076Z,87.60
2018-05-24T23:28:48.690Z,87.70
2018-05-24T23:31:16.286Z,87.90
2018-05-24T23:33:43.885Z,87.70
2018-05-24T23:36:11.506Z,87.20
2018-05-24T23:38:39.116Z,86.60
2018-05-24T23:41:06.754Z,85.90
2018-05-24T23:43:34.389Z,85.80
2018-05-24T23:46:03.148Z,85.60
2018-05-24T23:48:30.827Z,86.10
2018-05-24T23:50:58.430Z,86.60
2018-05-24T23:53:26.037Z,86.80
2018-05-24T23:55:53.638Z,87.30
2018-05-24T23:58:21.237Z,87.00
